sensor_id;sensor_type;location;lat;lon;timestamp;P1;durP1;ratioP1;P2;durP2;ratioP2
54745;SDS011;40640;48.130;11.356;2023-08-31T00:01:02;2.05;;;1.85;;
54745;SDS011;40640;48.130;11.356;2023-08-31T00:05:06;2.75;;;2.00;;
54745;SDS011;40640;48.130;11.356;2023-08-31T00:09:09;2.53;;;2.33;;
54745;SDS011;40640;48.130;11.356;2023-08-31T00:13:13;4.22;;;2.20;;
54745;SDS011;40640;48.130;11.356;2023-08-31T00:17:17;3.40;;;2.35;;
54745;SDS011;40640;48.130;11.356;2023-08-31T00:21:20;2.42;;;2.20;;
54745;SDS011;40640;48.130;11.356;2023-08-31T00:25:23;6.45;;;2.63;;
54745;SDS011;40640;48.130;11.356;2023-08-31T00:29:26;5.78;;;2.60;;
54745;SDS011;40640;48.130;11.356;2023-08-31T00:33:30;3.00;;;2.40;;
54745;SDS011;40640;48.130;11.356;2023-08-31T00:37:34;2.80;;;2.50;;
54745;SDS011;40640;48.130;11.356;2023-08-31T00:41:37;2.83;;;2.25;;
54745;SDS011;40640;48.130;11.356;2023-08-31T00:45:40;3.15;;;2.15;;
54745;SDS011;40640;48.130;11.356;2023-08-31T00:49:45;3.42;;;2.22;;
54745;SDS011;40640;48.130;11.356;2023-08-31T00:57:55;5.15;;;2.28;;
54745;SDS011;40640;48.130;11.356;2023-08-31T01:02:00;3.92;;;2.75;;
54745;SDS011;40640;48.130;11.356;2023-08-31T01:11:57;2.72;;;2.47;;
54745;SDS011;40640;48.130;11.356;2023-08-31T01:16:05;7.88;;;3.35;;
54745;SDS011;40640;48.130;11.356;2023-08-31T01:20:10;5.00;;;2.20;;
54745;SDS011;40640;48.130;11.356;2023-08-31T01:24:18;3.45;;;2.42;;
54745;SDS011;40640;48.130;11.356;2023-08-31T01:28:21;8.27;;;2.28;;
54745;SDS011;40640;48.130;11.356;2023-08-31T01:32:24;4.32;;;2.30;;
54745;SDS011;40640;48.130;11.356;2023-08-31T01:36:28;2.97;;;2.05;;
54745;SDS011;40640;48.130;11.356;2023-08-31T01:40:35;3.33;;;2.47;;
54745;SDS011;40640;48.130;11.356;2023-08-31T01:44:42;5.10;;;2.30;;
54745;SDS011;40640;48.130;11.356;2023-08-31T01:48:49;3.30;;;1.98;;
54745;SDS011;40640;48.130;11.356;2023-08-31T01:52:52;2.40;;;2.15;;
54745;SDS011;40640;48.130;11.356;2023-08-31T01:56:57;6.40;;;2.40;;
54745;SDS011;40640;48.130;11.356;2023-08-31T02:01:00;2.95;;;2.17;;
54745;SDS011;40640;48.130;11.356;2023-08-31T02:05:03;2.33;;;2.05;;
54745;SDS011;40640;48.130;11.356;2023-08-31T02:09:07;4.68;;;2.53;;
54745;SDS011;40640;48.130;11.356;2023-08-31T02:13:13;4.43;;;2.50;;
54745;SDS011;40640;48.130;11.356;2023-08-31T02:17:16;4.47;;;2.40;;
54745;SDS011;40640;48.130;11.356;2023-08-31T02:21:19;7.90;;;2.63;;
54745;SDS011;40640;48.130;11.356;2023-08-31T02:25:26;6.03;;;2.70;;
54745;SDS011;40640;48.130;11.356;2023-08-31T02:29:31;5.60;;;3.60;;
54745;SDS011;40640;48.130;11.356;2023-08-31T02:33:34;5.22;;;3.80;;
54745;SDS011;40640;48.130;11.356;2023-08-31T02:37:37;4.47;;;3.70;;
54745;SDS011;40640;48.130;11.356;2023-08-31T02:41:40;5.43;;;3.85;;
54745;SDS011;40640;48.130;11.356;2023-08-31T02:45:44;5.85;;;3.85;;
54745;SDS011;40640;48.130;11.356;2023-08-31T02:49:47;6.15;;;4.20;;
54745;SDS011;40640;48.130;11.356;2023-08-31T02:53:51;5.28;;;4.13;;
54745;SDS011;40640;48.130;11.356;2023-08-31T02:57:54;4.88;;;3.92;;
54745;SDS011;40640;48.130;11.356;2023-08-31T03:01:59;7.80;;;4.35;;
54745;SDS011;40640;48.130;11.356;2023-08-31T03:06:02;5.35;;;4.20;;
54745;SDS011;40640;48.130;11.356;2023-08-31T03:10:05;3.97;;;3.58;;
54745;SDS011;40640;48.130;11.356;2023-08-31T03:14:09;5.32;;;3.47;;
54745;SDS011;40640;48.130;11.356;2023-08-31T03:18:13;8.80;;;4.53;;
54745;SDS011;40640;48.130;11.356;2023-08-31T03:22:16;5.05;;;3.58;;
54745;SDS011;40640;48.130;11.356;2023-08-31T03:26:19;8.13;;;3.78;;
54745;SDS011;40640;48.130;11.356;2023-08-31T03:30:22;6.35;;;3.28;;
54745;SDS011;40640;48.130;11.356;2023-08-31T03:34:29;8.50;;;3.83;;
54745;SDS011;40640;48.130;11.356;2023-08-31T03:38:33;3.42;;;2.90;;
54745;SDS011;40640;48.130;11.356;2023-08-31T03:42:38;7.45;;;3.65;;
54745;SDS011;40640;48.130;11.356;2023-08-31T03:46:42;6.57;;;3.58;;
54745;SDS011;40640;48.130;11.356;2023-08-31T03:50:49;4.72;;;2.92;;
54745;SDS011;40640;48.130;11.356;2023-08-31T03:54:53;4.00;;;2.75;;
54745;SDS011;40640;48.130;11.356;2023-08-31T03:58:56;5.03;;;3.05;;
54745;SDS011;40640;48.130;11.356;2023-08-31T04:02:59;4.28;;;3.00;;
54745;SDS011;40640;48.130;11.356;2023-08-31T04:07:04;7.22;;;3.00;;
54745;SDS011;40640;48.130;11.356;2023-08-31T04:11:07;4.03;;;2.88;;
54745;SDS011;40640;48.130;11.356;2023-08-31T04:15:10;4.28;;;3.42;;
54745;SDS011;40640;48.130;11.356;2023-08-31T04:19:15;3.75;;;3.20;;
54745;SDS011;40640;48.130;11.356;2023-08-31T04:23:20;4.88;;;3.38;;
54745;SDS011;40640;48.130;11.356;2023-08-31T04:27:23;6.43;;;3.63;;
54745;SDS011;40640;48.130;11.356;2023-08-31T04:31:26;3.88;;;3.25;;
54745;SDS011;40640;48.130;11.356;2023-08-31T04:35:29;3.90;;;3.25;;
54745;SDS011;40640;48.130;11.356;2023-08-31T04:39:33;4.93;;;3.35;;
54745;SDS011;40640;48.130;11.356;2023-08-31T04:43:36;3.60;;;2.78;;
54745;SDS011;40640;48.130;11.356;2023-08-31T04:47:39;3.10;;;2.75;;
54745;SDS011;40640;48.130;11.356;2023-08-31T04:51:43;8.32;;;2.90;;
54745;SDS011;40640;48.130;11.356;2023-08-31T04:55:48;3.30;;;2.90;;
54745;SDS011;40640;48.130;11.356;2023-08-31T04:59:51;4.97;;;3.08;;
54745;SDS011;40640;48.130;11.356;2023-08-31T05:03:54;3.70;;;2.63;;
54745;SDS011;40640;48.130;11.356;2023-08-31T05:07:56;3.97;;;3.13;;
54745;SDS011;40640;48.130;11.356;2023-08-31T05:12:01;4.32;;;2.60;;
54745;SDS011;40640;48.130;11.356;2023-08-31T05:16:05;3.15;;;2.72;;
54745;SDS011;40640;48.130;11.356;2023-08-31T05:20:08;4.95;;;2.70;;
54745;SDS011;40640;48.130;11.356;2023-08-31T05:24:11;4.00;;;2.70;;
54745;SDS011;40640;48.130;11.356;2023-08-31T05:28:15;6.10;;;2.80;;
54745;SDS011;40640;48.130;11.356;2023-08-31T05:32:18;3.63;;;2.97;;
54745;SDS011;40640;48.130;11.356;2023-08-31T05:36:21;6.72;;;2.80;;
54745;SDS011;40640;48.130;11.356;2023-08-31T05:40:24;4.50;;;3.10;;
54745;SDS011;40640;48.130;11.356;2023-08-31T05:44:28;3.63;;;3.03;;
54745;SDS011;40640;48.130;11.356;2023-08-31T05:48:31;6.25;;;2.90;;
54745;SDS011;40640;48.130;11.356;2023-08-31T05:52:34;4.45;;;2.67;;
54745;SDS011;40640;48.130;11.356;2023-08-31T05:56:37;5.32;;;3.25;;
54745;SDS011;40640;48.130;11.356;2023-08-31T06:00:43;5.80;;;3.20;;
54745;SDS011;40640;48.130;11.356;2023-08-31T06:04:45;3.83;;;3.20;;
54745;SDS011;40640;48.130;11.356;2023-08-31T06:08:49;6.80;;;3.78;;
54745;SDS011;40640;48.130;11.356;2023-08-31T06:12:52;10.05;;;3.95;;
54745;SDS011;40640;48.130;11.356;2023-08-31T06:16:56;6.28;;;3.50;;
54745;SDS011;40640;48.130;11.356;2023-08-31T06:20:59;5.63;;;3.10;;
54745;SDS011;40640;48.130;11.356;2023-08-31T06:25:02;4.70;;;2.58;;
54745;SDS011;40640;48.130;11.356;2023-08-31T06:29:06;4.57;;;2.55;;
54745;SDS011;40640;48.130;11.356;2023-08-31T06:33:13;5.07;;;2.90;;
54745;SDS011;40640;48.130;11.356;2023-08-31T06:37:17;4.65;;;2.58;;
54745;SDS011;40640;48.130;11.356;2023-08-31T06:41:20;7.15;;;2.30;;
54745;SDS011;40640;48.130;11.356;2023-08-31T06:45:23;6.40;;;1.95;;
54745;SDS011;40640;48.130;11.356;2023-08-31T06:49:27;2.15;;;1.90;;
54745;SDS011;40640;48.130;11.356;2023-08-31T06:53:31;2.55;;;1.70;;
54745;SDS011;40640;48.130;11.356;2023-08-31T06:57:34;2.65;;;1.80;;
54745;SDS011;40640;48.130;11.356;2023-08-31T07:01:38;2.63;;;2.00;;
54745;SDS011;40640;48.130;11.356;2023-08-31T07:05:43;3.92;;;2.13;;
54745;SDS011;40640;48.130;11.356;2023-08-31T07:09:46;4.60;;;2.10;;
54745;SDS011;40640;48.130;11.356;2023-08-31T07:13:49;4.40;;;1.80;;
54745;SDS011;40640;48.130;11.356;2023-08-31T07:17:52;3.13;;;1.70;;
54745;SDS011;40640;48.130;11.356;2023-08-31T07:21:57;3.30;;;2.03;;
54745;SDS011;40640;48.130;11.356;2023-08-31T07:26:01;2.28;;;1.88;;
54745;SDS011;40640;48.130;11.356;2023-08-31T07:30:06;5.88;;;2.13;;
54745;SDS011;40640;48.130;11.356;2023-08-31T07:34:09;4.22;;;1.85;;
54745;SDS011;40640;48.130;11.356;2023-08-31T07:38:13;5.22;;;2.13;;
54745;SDS011;40640;48.130;11.356;2023-08-31T07:42:17;3.78;;;2.15;;
54745;SDS011;40640;48.130;11.356;2023-08-31T07:46:20;3.67;;;2.15;;
54745;SDS011;40640;48.130;11.356;2023-08-31T07:50:22;4.50;;;2.50;;
54745;SDS011;40640;48.130;11.356;2023-08-31T07:54:27;2.95;;;1.85;;
54745;SDS011;40640;48.130;11.356;2023-08-31T07:58:30;6.70;;;2.22;;
54745;SDS011;40640;48.130;11.356;2023-08-31T08:02:32;4.65;;;2.50;;
54745;SDS011;40640;48.130;11.356;2023-08-31T08:06:35;5.90;;;2.17;;
54745;SDS011;40640;48.130;11.356;2023-08-31T08:10:40;3.38;;;2.08;;
54745;SDS011;40640;48.130;11.356;2023-08-31T08:14:44;4.30;;;1.67;;
54745;SDS011;40640;48.130;11.356;2023-08-31T08:18:47;4.93;;;2.50;;
54745;SDS011;40640;48.130;11.356;2023-08-31T08:22:52;2.50;;;1.80;;
54745;SDS011;40640;48.130;11.356;2023-08-31T08:26:56;6.63;;;2.65;;
54745;SDS011;40640;48.130;11.356;2023-08-31T08:31:00;5.78;;;2.13;;
54745;SDS011;40640;48.130;11.356;2023-08-31T08:35:04;6.28;;;2.00;;
54745;SDS011;40640;48.130;11.356;2023-08-31T08:39:08;4.05;;;2.00;;
54745;SDS011;40640;48.130;11.356;2023-08-31T08:43:12;4.35;;;2.28;;
54745;SDS011;40640;48.130;11.356;2023-08-31T08:47:16;3.50;;;1.90;;
54745;SDS011;40640;48.130;11.356;2023-08-31T08:51:20;3.03;;;1.60;;
54745;SDS011;40640;48.130;11.356;2023-08-31T08:55:23;4.45;;;2.20;;
54745;SDS011;40640;48.130;11.356;2023-08-31T08:59:28;3.75;;;2.50;;
54745;SDS011;40640;48.130;11.356;2023-08-31T09:03:31;1.70;;;1.40;;
54745;SDS011;40640;48.130;11.356;2023-08-31T09:07:34;5.13;;;1.65;;
54745;SDS011;40640;48.130;11.356;2023-08-31T09:11:37;1.40;;;1.27;;
54745;SDS011;40640;48.130;11.356;2023-08-31T09:15:43;2.75;;;1.75;;
54745;SDS011;40640;48.130;11.356;2023-08-31T09:19:47;3.15;;;1.40;;
54745;SDS011;40640;48.130;11.356;2023-08-31T09:24:01;2.95;;;1.88;;
54745;SDS011;40640;48.130;11.356;2023-08-31T09:28:04;3.85;;;1.30;;
54745;SDS011;40640;48.130;11.356;2023-08-31T09:32:09;4.88;;;2.20;;
54745;SDS011;40640;48.130;11.356;2023-08-31T09:36:18;2.30;;;1.50;;
54745;SDS011;40640;48.130;11.356;2023-08-31T09:40:23;2.50;;;1.65;;
54745;SDS011;40640;48.130;11.356;2023-08-31T09:44:26;2.78;;;1.73;;
54745;SDS011;40640;48.130;11.356;2023-08-31T09:48:30;1.60;;;1.27;;
54745;SDS011;40640;48.130;11.356;2023-08-31T09:52:34;3.38;;;1.65;;
54745;SDS011;40640;48.130;11.356;2023-08-31T09:56:37;3.42;;;1.60;;
54745;SDS011;40640;48.130;11.356;2023-08-31T10:04:48;3.45;;;1.50;;
54745;SDS011;40640;48.130;11.356;2023-08-31T10:08:54;4.65;;;1.60;;
54745;SDS011;40640;48.130;11.356;2023-08-31T10:12:57;4.00;;;1.98;;
54745;SDS011;40640;48.130;11.356;2023-08-31T10:17:02;3.38;;;1.60;;
54745;SDS011;40640;48.130;11.356;2023-08-31T10:21:07;4.05;;;1.85;;
54745;SDS011;40640;48.130;11.356;2023-08-31T10:25:11;5.70;;;2.00;;
54745;SDS011;40640;48.130;11.356;2023-08-31T10:29:25;4.65;;;2.13;;
54745;SDS011;40640;48.130;11.356;2023-08-31T10:33:31;4.07;;;1.80;;
54745;SDS011;40640;48.130;11.356;2023-08-31T10:37:35;2.03;;;1.60;;
54745;SDS011;40640;48.130;11.356;2023-08-31T10:41:38;2.60;;;1.60;;
54745;SDS011;40640;48.130;11.356;2023-08-31T10:45:45;4.13;;;1.55;;
54745;SDS011;40640;48.130;11.356;2023-08-31T10:49:50;2.40;;;1.58;;
54745;SDS011;40640;48.130;11.356;2023-08-31T10:54:04;7.00;;;2.00;;
54745;SDS011;40640;48.130;11.356;2023-08-31T10:58:12;4.72;;;1.98;;
54745;SDS011;40640;48.130;11.356;2023-08-31T11:02:27;5.97;;;2.28;;
54745;SDS011;40640;48.130;11.356;2023-08-31T11:06:31;7.28;;;2.13;;
54745;SDS011;40640;48.130;11.356;2023-08-31T11:10:35;8.40;;;3.80;;
54745;SDS011;40640;48.130;11.356;2023-08-31T11:14:39;4.20;;;2.30;;
54745;SDS011;40640;48.130;11.356;2023-08-31T11:18:42;9.00;;;2.55;;
54745;SDS011;40640;48.130;11.356;2023-08-31T11:22:46;5.38;;;2.40;;
54745;SDS011;40640;48.130;11.356;2023-08-31T11:26:54;4.22;;;1.88;;
54745;SDS011;40640;48.130;11.356;2023-08-31T11:30:57;4.45;;;2.17;;
54745;SDS011;40640;48.130;11.356;2023-08-31T11:35:00;7.13;;;2.40;;
54745;SDS011;40640;48.130;11.356;2023-08-31T11:39:05;5.63;;;1.90;;
54745;SDS011;40640;48.130;11.356;2023-08-31T11:43:10;3.92;;;1.88;;
54745;SDS011;40640;48.130;11.356;2023-08-31T11:47:14;2.53;;;1.50;;
54745;SDS011;40640;48.130;11.356;2023-08-31T11:51:17;3.47;;;1.70;;
54745;SDS011;40640;48.130;11.356;2023-08-31T11:55:21;3.85;;;1.60;;
54745;SDS011;40640;48.130;11.356;2023-08-31T11:59:25;4.43;;;1.80;;
54745;SDS011;40640;48.130;11.356;2023-08-31T12:03:37;3.67;;;1.95;;
54745;SDS011;40640;48.130;11.356;2023-08-31T12:07:52;3.47;;;1.90;;
54745;SDS011;40640;48.130;11.356;2023-08-31T12:11:56;3.72;;;2.13;;
54745;SDS011;40640;48.130;11.356;2023-08-31T12:16:00;3.73;;;2.30;;
54745;SDS011;40640;48.130;11.356;2023-08-31T12:20:06;3.08;;;2.10;;
54745;SDS011;40640;48.130;11.356;2023-08-31T12:28:12;2.78;;;1.90;;
54745;SDS011;40640;48.130;11.356;2023-08-31T12:32:17;4.68;;;2.08;;
54745;SDS011;40640;48.130;11.356;2023-08-31T12:36:20;5.57;;;2.38;;
54745;SDS011;40640;48.130;11.356;2023-08-31T12:40:23;4.47;;;1.75;;
54745;SDS011;40640;48.130;11.356;2023-08-31T12:44:26;4.40;;;2.08;;
54745;SDS011;40640;48.130;11.356;2023-08-31T12:48:30;3.50;;;2.08;;
54745;SDS011;40640;48.130;11.356;2023-08-31T12:52:34;4.47;;;2.10;;
54745;SDS011;40640;48.130;11.356;2023-08-31T12:56:37;4.90;;;1.92;;
54745;SDS011;40640;48.130;11.356;2023-08-31T13:00:40;4.68;;;2.00;;
54745;SDS011;40640;48.130;11.356;2023-08-31T13:04:46;4.03;;;1.90;;
54745;SDS011;40640;48.130;11.356;2023-08-31T13:08:49;5.57;;;2.00;;
54745;SDS011;40640;48.130;11.356;2023-08-31T13:12:52;4.07;;;1.88;;
54745;SDS011;40640;48.130;11.356;2023-08-31T13:16:56;2.42;;;1.50;;
54745;SDS011;40640;48.130;11.356;2023-08-31T13:21:00;4.30;;;2.10;;
54745;SDS011;40640;48.130;11.356;2023-08-31T13:25:04;3.20;;;1.83;;
54745;SDS011;40640;48.130;11.356;2023-08-31T13:29:07;4.07;;;1.98;;
54745;SDS011;40640;48.130;11.356;2023-08-31T13:33:10;5.53;;;2.10;;
54745;SDS011;40640;48.130;11.356;2023-08-31T13:37:14;5.05;;;1.90;;
54745;SDS011;40640;48.130;11.356;2023-08-31T13:41:17;3.95;;;1.88;;
54745;SDS011;40640;48.130;11.356;2023-08-31T13:45:20;4.07;;;1.90;;
54745;SDS011;40640;48.130;11.356;2023-08-31T13:49:23;3.13;;;2.05;;
54745;SDS011;40640;48.130;11.356;2023-08-31T13:53:27;5.40;;;2.03;;
54745;SDS011;40640;48.130;11.356;2023-08-31T13:57:30;5.65;;;1.88;;
54745;SDS011;40640;48.130;11.356;2023-08-31T14:01:33;6.45;;;1.35;;
54745;SDS011;40640;48.130;11.356;2023-08-31T14:05:36;3.72;;;1.98;;
54745;SDS011;40640;48.130;11.356;2023-08-31T14:09:40;3.22;;;1.85;;
54745;SDS011;40640;48.130;11.356;2023-08-31T14:13:43;9.98;;;2.72;;
54745;SDS011;40640;48.130;11.356;2023-08-31T14:17:49;4.32;;;2.10;;
54745;SDS011;40640;48.130;11.356;2023-08-31T14:21:53;4.63;;;1.87;;
54745;SDS011;40640;48.130;11.356;2023-08-31T14:26:01;7.25;;;2.10;;
54745;SDS011;40640;48.130;11.356;2023-08-31T14:30:05;5.15;;;2.00;;
54745;SDS011;40640;48.130;11.356;2023-08-31T14:34:09;5.82;;;2.03;;
54745;SDS011;40640;48.130;11.356;2023-08-31T14:38:13;4.55;;;2.33;;
54745;SDS011;40640;48.130;11.356;2023-08-31T14:42:24;4.40;;;1.92;;
54745;SDS011;40640;48.130;11.356;2023-08-31T14:46:27;2.85;;;1.67;;
54745;SDS011;40640;48.130;11.356;2023-08-31T14:50:30;3.90;;;1.83;;
54745;SDS011;40640;48.130;11.356;2023-08-31T14:54:33;9.43;;;2.20;;
54745;SDS011;40640;48.130;11.356;2023-08-31T14:58:37;11.98;;;2.42;;
54745;SDS011;40640;48.130;11.356;2023-08-31T15:02:40;6.55;;;2.20;;
54745;SDS011;40640;48.130;11.356;2023-08-31T15:06:43;4.47;;;1.90;;
54745;SDS011;40640;48.130;11.356;2023-08-31T15:10:46;4.78;;;1.98;;
54745;SDS011;40640;48.130;11.356;2023-08-31T15:14:50;3.88;;;1.80;;
54745;SDS011;40640;48.130;11.356;2023-08-31T15:18:53;6.55;;;2.30;;
54745;SDS011;40640;48.130;11.356;2023-08-31T15:22:56;3.47;;;1.80;;
54745;SDS011;40640;48.130;11.356;2023-08-31T15:27:00;3.90;;;2.13;;
54745;SDS011;40640;48.130;11.356;2023-08-31T15:31:04;3.10;;;1.90;;
54745;SDS011;40640;48.130;11.356;2023-08-31T15:35:07;3.05;;;1.80;;
54745;SDS011;40640;48.130;11.356;2023-08-31T15:39:10;5.93;;;1.95;;
54745;SDS011;40640;48.130;11.356;2023-08-31T15:43:14;6.85;;;2.13;;
54745;SDS011;40640;48.130;11.356;2023-08-31T15:47:19;3.30;;;1.73;;
54745;SDS011;40640;48.130;11.356;2023-08-31T15:51:22;5.13;;;2.08;;
54745;SDS011;40640;48.130;11.356;2023-08-31T15:55:25;6.72;;;1.85;;
54745;SDS011;40640;48.130;11.356;2023-08-31T15:59:28;8.00;;;2.05;;
54745;SDS011;40640;48.130;11.356;2023-08-31T16:03:32;6.72;;;2.38;;
54745;SDS011;40640;48.130;11.356;2023-08-31T16:07:36;6.00;;;2.08;;
54745;SDS011;40640;48.130;11.356;2023-08-31T16:11:40;8.00;;;2.40;;
54745;SDS011;40640;48.130;11.356;2023-08-31T16:15:44;6.18;;;2.22;;
54745;SDS011;40640;48.130;11.356;2023-08-31T16:19:49;9.32;;;2.20;;
54745;SDS011;40640;48.130;11.356;2023-08-31T16:23:52;5.78;;;2.33;;
54745;SDS011;40640;48.130;11.356;2023-08-31T16:27:55;6.72;;;3.35;;
54745;SDS011;40640;48.130;11.356;2023-08-31T16:31:58;6.47;;;2.10;;
54745;SDS011;40640;48.130;11.356;2023-08-31T16:36:03;8.35;;;2.67;;
54745;SDS011;40640;48.130;11.356;2023-08-31T16:40:07;4.43;;;2.30;;
54745;SDS011;40640;48.130;11.356;2023-08-31T16:44:11;7.78;;;2.45;;
54745;SDS011;40640;48.130;11.356;2023-08-31T16:48:14;4.72;;;2.25;;
54745;SDS011;40640;48.130;11.356;2023-08-31T16:52:19;3.75;;;2.00;;
54745;SDS011;40640;48.130;11.356;2023-08-31T16:56:21;4.45;;;1.95;;
54745;SDS011;40640;48.130;11.356;2023-08-31T17:00:25;3.92;;;2.05;;
54745;SDS011;40640;48.130;11.356;2023-08-31T17:04:27;5.68;;;2.20;;
54745;SDS011;40640;48.130;11.356;2023-08-31T17:08:32;5.82;;;2.13;;
54745;SDS011;40640;48.130;11.356;2023-08-31T17:12:35;4.30;;;2.10;;
54745;SDS011;40640;48.130;11.356;2023-08-31T17:16:38;3.47;;;2.25;;
54745;SDS011;40640;48.130;11.356;2023-08-31T17:20:40;5.97;;;2.38;;
54745;SDS011;40640;48.130;11.356;2023-08-31T17:24:45;6.88;;;2.50;;
54745;SDS011;40640;48.130;11.356;2023-08-31T17:28:48;5.35;;;2.28;;
54745;SDS011;40640;48.130;11.356;2023-08-31T17:32:52;5.65;;;2.35;;
54745;SDS011;40640;48.130;11.356;2023-08-31T17:36:55;4.32;;;2.10;;
54745;SDS011;40640;48.130;11.356;2023-08-31T17:40:59;6.75;;;2.28;;
54745;SDS011;40640;48.130;11.356;2023-08-31T17:45:02;6.70;;;2.22;;
54745;SDS011;40640;48.130;11.356;2023-08-31T17:49:05;6.20;;;2.15;;
54745;SDS011;40640;48.130;11.356;2023-08-31T17:53:08;5.40;;;2.03;;
54745;SDS011;40640;48.130;11.356;2023-08-31T17:57:13;5.97;;;2.58;;
54745;SDS011;40640;48.130;11.356;2023-08-31T18:01:15;8.25;;;2.40;;
54745;SDS011;40640;48.130;11.356;2023-08-31T18:05:18;7.07;;;2.65;;
54745;SDS011;40640;48.130;11.356;2023-08-31T18:09:22;10.82;;;2.50;;
54745;SDS011;40640;48.130;11.356;2023-08-31T18:13:29;10.05;;;3.45;;
54745;SDS011;40640;48.130;11.356;2023-08-31T18:17:32;7.95;;;3.90;;
54745;SDS011;40640;48.130;11.356;2023-08-31T18:21:35;13.45;;;4.95;;
54745;SDS011;40640;48.130;11.356;2023-08-31T18:25:38;9.15;;;2.60;;
54745;SDS011;40640;48.130;11.356;2023-08-31T18:29:42;4.72;;;2.15;;
54745;SDS011;40640;48.130;11.356;2023-08-31T18:33:44;6.65;;;2.42;;
54745;SDS011;40640;48.130;11.356;2023-08-31T18:37:47;7.97;;;2.30;;
54745;SDS011;40640;48.130;11.356;2023-08-31T18:41:50;10.75;;;2.80;;
54745;SDS011;40640;48.130;11.356;2023-08-31T18:45:54;4.25;;;2.15;;
54745;SDS011;40640;48.130;11.356;2023-08-31T18:49:57;8.32;;;2.92;;
54745;SDS011;40640;48.130;11.356;2023-08-31T18:54:00;5.95;;;2.53;;
54745;SDS011;40640;48.130;11.356;2023-08-31T18:58:04;4.45;;;2.40;;
54745;SDS011;40640;48.130;11.356;2023-08-31T19:02:08;6.22;;;2.70;;
54745;SDS011;40640;48.130;11.356;2023-08-31T19:06:11;14.15;;;2.47;;
54745;SDS011;40640;48.130;11.356;2023-08-31T19:10:14;6.93;;;2.53;;
54745;SDS011;40640;48.130;11.356;2023-08-31T19:14:17;6.07;;;2.55;;
54745;SDS011;40640;48.130;11.356;2023-08-31T19:18:24;7.03;;;2.60;;
54745;SDS011;40640;48.130;11.356;2023-08-31T19:22:27;5.65;;;2.17;;
54745;SDS011;40640;48.130;11.356;2023-08-31T19:26:29;6.35;;;2.60;;
54745;SDS011;40640;48.130;11.356;2023-08-31T19:30:32;5.60;;;2.22;;
54745;SDS011;40640;48.130;11.356;2023-08-31T19:34:37;5.82;;;2.63;;
54745;SDS011;40640;48.130;11.356;2023-08-31T19:38:40;11.30;;;2.53;;
54745;SDS011;40640;48.130;11.356;2023-08-31T19:42:42;5.45;;;2.45;;
54745;SDS011;40640;48.130;11.356;2023-08-31T19:46:45;6.13;;;2.47;;
54745;SDS011;40640;48.130;11.356;2023-08-31T19:51:02;4.30;;;2.28;;
54745;SDS011;40640;48.130;11.356;2023-08-31T19:55:06;5.03;;;2.30;;
54745;SDS011;40640;48.130;11.356;2023-08-31T19:59:13;3.50;;;2.15;;
54745;SDS011;40640;48.130;11.356;2023-08-31T20:03:16;7.85;;;3.00;;
54745;SDS011;40640;48.130;11.356;2023-08-31T20:07:20;6.60;;;2.35;;
54745;SDS011;40640;48.130;11.356;2023-08-31T20:11:24;6.63;;;2.50;;
54745;SDS011;40640;48.130;11.356;2023-08-31T20:15:27;5.68;;;2.25;;
54745;SDS011;40640;48.130;11.356;2023-08-31T20:19:30;4.78;;;2.42;;
54745;SDS011;40640;48.130;11.356;2023-08-31T20:23:34;4.20;;;2.28;;
54745;SDS011;40640;48.130;11.356;2023-08-31T20:27:37;6.80;;;2.40;;
54745;SDS011;40640;48.130;11.356;2023-08-31T20:31:40;5.88;;;2.78;;
54745;SDS011;40640;48.130;11.356;2023-08-31T20:35:43;9.57;;;3.05;;
54745;SDS011;40640;48.130;11.356;2023-08-31T20:39:47;5.65;;;2.60;;
54745;SDS011;40640;48.130;11.356;2023-08-31T20:43:50;7.10;;;2.38;;
54745;SDS011;40640;48.130;11.356;2023-08-31T20:47:53;10.45;;;2.97;;
54745;SDS011;40640;48.130;11.356;2023-08-31T20:51:56;6.30;;;3.08;;
54745;SDS011;40640;48.130;11.356;2023-08-31T20:56:07;7.72;;;3.05;;
54745;SDS011;40640;48.130;11.356;2023-08-31T21:00:10;3.80;;;2.50;;
54745;SDS011;40640;48.130;11.356;2023-08-31T21:04:15;6.82;;;2.30;;
54745;SDS011;40640;48.130;11.356;2023-08-31T21:08:20;4.65;;;2.50;;
54745;SDS011;40640;48.130;11.356;2023-08-31T21:12:25;9.15;;;2.63;;
54745;SDS011;40640;48.130;11.356;2023-08-31T21:16:30;5.55;;;3.00;;
54745;SDS011;40640;48.130;11.356;2023-08-31T21:20:33;9.57;;;2.77;;
54745;SDS011;40640;48.130;11.356;2023-08-31T21:24:36;5.20;;;2.45;;
54745;SDS011;40640;48.130;11.356;2023-08-31T21:28:40;5.90;;;2.42;;
54745;SDS011;40640;48.130;11.356;2023-08-31T21:32:43;7.55;;;3.58;;
54745;SDS011;40640;48.130;11.356;2023-08-31T21:36:46;4.80;;;2.17;;
54745;SDS011;40640;48.130;11.356;2023-08-31T21:40:49;6.30;;;3.17;;
54745;SDS011;40640;48.130;11.356;2023-08-31T21:44:53;9.00;;;2.70;;
54745;SDS011;40640;48.130;11.356;2023-08-31T21:48:58;5.70;;;2.47;;
54745;SDS011;40640;48.130;11.356;2023-08-31T21:53:02;6.10;;;3.05;;
54745;SDS011;40640;48.130;11.356;2023-08-31T21:57:05;3.45;;;2.53;;
54745;SDS011;40640;48.130;11.356;2023-08-31T22:01:12;4.87;;;2.43;;
54745;SDS011;40640;48.130;11.356;2023-08-31T22:05:15;8.85;;;3.00;;
54745;SDS011;40640;48.130;11.356;2023-08-31T22:09:19;5.00;;;2.83;;
54745;SDS011;40640;48.130;11.356;2023-08-31T22:13:22;7.50;;;2.63;;
54745;SDS011;40640;48.130;11.356;2023-08-31T22:17:26;5.00;;;2.63;;
54745;SDS011;40640;48.130;11.356;2023-08-31T22:21:29;6.30;;;2.50;;
54745;SDS011;40640;48.130;11.356;2023-08-31T22:25:32;5.57;;;2.50;;
54745;SDS011;40640;48.130;11.356;2023-08-31T22:29:35;4.72;;;2.28;;
54745;SDS011;40640;48.130;11.356;2023-08-31T22:33:40;4.68;;;2.67;;
54745;SDS011;40640;48.130;11.356;2023-08-31T22:37:43;7.47;;;2.80;;
54745;SDS011;40640;48.130;11.356;2023-08-31T22:41:46;4.15;;;3.03;;
54745;SDS011;40640;48.130;11.356;2023-08-31T22:45:54;5.72;;;2.95;;
54745;SDS011;40640;48.130;11.356;2023-08-31T22:49:59;8.32;;;2.70;;
54745;SDS011;40640;48.130;11.356;2023-08-31T22:54:02;8.32;;;2.88;;
54745;SDS011;40640;48.130;11.356;2023-08-31T22:58:05;4.80;;;2.70;;
54745;SDS011;40640;48.130;11.356;2023-08-31T23:02:08;5.55;;;2.80;;
54745;SDS011;40640;48.130;11.356;2023-08-31T23:06:12;6.53;;;2.80;;
54745;SDS011;40640;48.130;11.356;2023-08-31T23:10:15;8.93;;;3.20;;
54745;SDS011;40640;48.130;11.356;2023-08-31T23:14:31;4.10;;;3.05;;
54745;SDS011;40640;48.130;11.356;2023-08-31T23:18:34;6.47;;;3.22;;
54745;SDS011;40640;48.130;11.356;2023-08-31T23:22:39;4.35;;;2.90;;
54745;SDS011;40640;48.130;11.356;2023-08-31T23:26:41;4.78;;;3.15;;
54745;SDS011;40640;48.130;11.356;2023-08-31T23:30:44;4.68;;;3.38;;
54745;SDS011;40640;48.130;11.356;2023-08-31T23:34:47;6.57;;;3.75;;
54745;SDS011;40640;48.130;11.356;2023-08-31T23:38:52;7.65;;;3.42;;
54745;SDS011;40640;48.130;11.356;2023-08-31T23:42:55;6.10;;;3.22;;
54745;SDS011;40640;48.130;11.356;2023-08-31T23:46:58;4.50;;;3.40;;
54745;SDS011;40640;48.130;11.356;2023-08-31T23:51:01;5.43;;;3.35;;
54745;SDS011;40640;48.130;11.356;2023-08-31T23:55:06;6.43;;;3.47;;
54745;SDS011;40640;48.130;11.356;2023-08-31T23:59:09;6.18;;;3.70;;
